createdAt,value
2022-11-24T00:01:15.357Z,6.13
2022-11-24T00:03:43.933Z,6.14
2022-11-24T00:06:13.729Z,6.19
2022-11-24T00:08:43.926Z,6.17
2022-11-24T00:11:14.071Z,6.09
2022-11-24T00:13:42.199Z,6.17
2022-11-24T00:16:14.942Z,6.12
2022-11-24T00:18:44.927Z,6.18
2022-11-24T00:21:12.963Z,6.13
2022-11-24T00:23:41.088Z,6.20
2022-11-24T00:26:11.009Z,6.23
2022-11-24T00:28:39.425Z,6.17
2022-11-24T00:31:18.027Z,6.12
2022-11-24T00:33:46.377Z,6.11
2022-11-24T00:36:14.206Z,6.15
2022-11-24T00:38:42.097Z,6.22
2022-11-24T00:41:09.846Z,6.29
2022-11-24T00:43:37.729Z,6.24
2022-11-24T00:46:05.709Z,6.18
2022-11-24T00:48:34.850Z,6.07
2022-11-24T00:51:04.931Z,6.06
2022-11-24T00:53:33.148Z,6.01
2022-11-24T00:56:00.967Z,6.05
2022-11-24T00:58:28.702Z,6.04
2022-11-24T01:00:56.581Z,6.09
2022-11-24T01:03:24.379Z,6.09
2022-11-24T01:05:53.540Z,6.07
2022-11-24T01:08:21.296Z,6.10
2022-11-24T01:10:49.202Z,6.06
2022-11-24T01:13:16.981Z,6.05
2022-11-24T01:15:44.780Z,6.06
2022-11-24T01:18:13.191Z,5.98
2022-11-24T01:20:40.991Z,5.90
2022-11-24T01:23:10.142Z,5.93
2022-11-24T01:25:40.912Z,5.95
2022-11-24T01:28:09.002Z,5.95
2022-11-24T01:30:36.832Z,5.91
2022-11-24T01:33:05.069Z,5.95
2022-11-24T01:35:32.817Z,5.93
2022-11-24T01:38:00.557Z,5.95
2022-11-24T01:40:29.948Z,5.91
2022-11-24T01:42:57.722Z,5.97
2022-11-24T01:45:32.380Z,6.02
2022-11-24T01:48:01.825Z,6.01
2022-11-24T01:50:29.800Z,6.12
2022-11-24T01:52:58.104Z,6.07
2022-11-24T01:55:32.680Z,5.98
2022-11-24T01:58:06.039Z,5.93
2022-11-24T02:00:37.516Z,5.94
2022-11-24T02:03:05.470Z,5.90
2022-11-24T02:05:40.231Z,5.95
2022-11-24T02:08:13.071Z,5.91
2022-11-24T02:10:42.685Z,5.94
2022-11-24T02:13:10.570Z,5.95
2022-11-24T02:15:38.544Z,5.93
2022-11-24T02:18:06.792Z,5.98
2022-11-24T02:20:35.169Z,6.05
2022-11-24T02:23:11.156Z,5.97
2022-11-24T02:25:49.255Z,5.96
2022-11-24T02:28:20.724Z,5.91
2022-11-24T02:30:49.161Z,5.93
2022-11-24T02:33:17.741Z,5.94
2022-11-24T02:35:45.508Z,5.92
2022-11-24T02:38:14.406Z,5.98
2022-11-24T02:40:45.590Z,5.95
2022-11-24T02:43:17.580Z,5.99
2022-11-24T02:45:46.673Z,5.92
2022-11-24T02:48:14.902Z,5.93
2022-11-24T02:50:42.722Z,5.93
2022-11-24T02:53:10.576Z,6.06
2022-11-24T02:55:38.374Z,5.91
2022-11-24T02:58:06.142Z,5.92
2022-11-24T03:00:33.942Z,6.01
2022-11-24T03:03:03.078Z,5.95
2022-11-24T03:05:30.902Z,5.94
2022-11-24T03:07:58.675Z,5.95
2022-11-24T03:10:26.424Z,5.91
2022-11-24T03:12:55.162Z,5.91
2022-11-24T03:15:23.681Z,5.96
2022-11-24T03:17:56.959Z,5.96
2022-11-24T03:20:26.405Z,6.05
2022-11-24T03:22:54.207Z,5.98
2022-11-24T03:25:22.063Z,6.08
2022-11-24T03:27:50.904Z,5.93
2022-11-24T03:30:18.780Z,5.94
2022-11-24T03:32:46.520Z,5.88
2022-11-24T03:35:15.411Z,5.91
2022-11-24T03:37:44.491Z,6.08
2022-11-24T03:40:12.799Z,5.99
2022-11-24T03:42:41.110Z,5.95
2022-11-24T03:45:44.164Z,5.89
2022-11-24T03:47:58.102Z,5.92
2022-11-24T03:50:25.871Z,5.98
2022-11-24T03:52:55.012Z,6.04
2022-11-24T03:55:22.788Z,6.00
2022-11-24T03:57:50.578Z,5.98
2022-11-24T04:00:18.991Z,5.95
2022-11-24T04:02:48.143Z,5.94
2022-11-24T04:05:16.589Z,5.90
2022-11-24T04:07:44.517Z,5.96
2022-11-24T04:10:14.135Z,6.05
2022-11-24T04:12:46.771Z,5.98
2022-11-24T04:15:17.372Z,5.94
2022-11-24T04:17:46.876Z,5.95
2022-11-24T04:20:15.505Z,5.95
2022-11-24T04:22:43.396Z,6.02
2022-11-24T04:25:13.045Z,6.02
2022-11-24T04:27:40.815Z,6.08
2022-11-24T04:30:09.563Z,6.19
2022-11-24T04:32:37.565Z,6.09
2022-11-24T04:35:05.810Z,6.06
2022-11-24T04:37:33.605Z,6.20
2022-11-24T04:40:01.362Z,6.24
2022-11-24T04:42:30.446Z,6.37
2022-11-24T04:44:58.221Z,6.22
2022-11-24T04:47:27.224Z,6.28
2022-11-24T04:49:55.407Z,6.25
2022-11-24T04:52:24.778Z,6.31
2022-11-24T04:54:52.953Z,6.28
2022-11-24T04:57:22.901Z,6.38
2022-11-24T04:59:52.564Z,6.40
2022-11-24T05:02:20.921Z,6.41
2022-11-24T05:04:48.917Z,6.47
2022-11-24T05:07:19.257Z,6.42
2022-11-24T05:10:05.239Z,6.47
2022-11-24T05:12:33.024Z,6.57
2022-11-24T05:15:03.595Z,6.56
2022-11-24T05:17:32.756Z,6.44
2022-11-24T05:20:00.619Z,6.53
2022-11-24T05:22:31.636Z,6.44
2022-11-24T05:24:59.892Z,6.30
2022-11-24T05:27:27.687Z,6.33
2022-11-24T05:29:55.557Z,6.19
2022-11-24T05:32:24.885Z,6.25
2022-11-24T05:34:53.875Z,6.27
2022-11-24T05:37:21.753Z,6.43
2022-11-24T05:39:49.516Z,6.45
2022-11-24T05:42:34.634Z,6.36
2022-11-24T05:45:02.411Z,6.37
2022-11-24T05:47:31.564Z,6.37
2022-11-24T05:50:00.356Z,6.44
2022-11-24T05:52:28.444Z,6.54
2022-11-24T05:54:56.234Z,6.50
2022-11-24T05:57:24.070Z,6.46
2022-11-24T05:59:51.924Z,6.57
2022-11-24T06:02:19.955Z,6.52
2022-11-24T06:04:49.420Z,6.52
2022-11-24T06:07:17.458Z,6.56
2022-11-24T06:09:45.294Z,6.58
2022-11-24T06:12:13.972Z,6.57
2022-11-24T06:14:42.136Z,6.73
2022-11-24T06:17:11.592Z,6.70
2022-11-24T06:19:42.139Z,6.60
2022-11-24T06:22:11.560Z,6.59
2022-11-24T06:24:39.404Z,6.66
2022-11-24T06:27:07.758Z,6.61
2022-11-24T06:29:35.615Z,6.60
2022-11-24T06:32:03.506Z,6.51
2022-11-24T06:34:31.689Z,6.49
2022-11-24T06:36:59.650Z,6.57
2022-11-24T06:39:28.868Z,6.64
2022-11-24T06:41:56.736Z,6.60
2022-11-24T06:44:24.943Z,6.74
2022-11-24T06:46:52.773Z,6.70
2022-11-24T06:49:20.664Z,6.71
2022-11-24T06:51:49.171Z,6.77
2022-11-24T06:54:21.016Z,6.65
2022-11-24T06:56:50.176Z,6.75
2022-11-24T06:59:20.200Z,6.85
2022-11-24T07:01:48.152Z,6.84
2022-11-24T07:04:16.787Z,6.77
2022-11-24T07:06:44.713Z,6.68
2022-11-24T07:09:14.113Z,6.80
2022-11-24T07:11:42.402Z,6.72
2022-11-24T07:14:11.671Z,6.73
2022-11-24T07:16:40.344Z,6.57
2022-11-24T07:19:08.206Z,6.58
2022-11-24T07:21:36.076Z,6.47
2022-11-24T07:24:04.559Z,6.38
2022-11-24T07:26:37.105Z,6.34
2022-11-24T07:29:05.659Z,6.38
2022-11-24T07:31:34.874Z,6.43
2022-11-24T07:34:02.695Z,6.46
2022-11-24T07:36:30.470Z,6.52
2022-11-24T07:38:58.472Z,6.46
2022-11-24T07:41:26.309Z,6.45
2022-11-24T07:43:54.093Z,6.50
2022-11-24T07:46:22.123Z,6.62
2022-11-24T07:48:51.449Z,6.63
2022-11-24T07:51:19.338Z,6.65
2022-11-24T07:53:47.390Z,6.71
2022-11-24T07:56:15.233Z,6.67
2022-11-24T07:58:44.304Z,6.72
2022-11-24T08:01:15.657Z,6.83
2022-11-24T08:03:43.887Z,6.91
2022-11-24T08:06:37.447Z,7.00
2022-11-24T08:09:02.090Z,6.89
2022-11-24T08:11:31.447Z,6.95
2022-11-24T08:13:59.732Z,7.08
2022-11-24T08:16:27.621Z,7.09
2022-11-24T08:18:56.850Z,7.46
2022-11-24T08:21:26.158Z,7.77
2022-11-24T08:23:56.141Z,8.30
2022-11-24T08:26:24.961Z,8.11
2022-11-24T08:28:55.739Z,8.24
2022-11-24T08:31:24.861Z,8.64
2022-11-24T08:33:52.763Z,8.72
2022-11-24T08:36:20.733Z,8.18
2022-11-24T08:38:54.677Z,7.95
2022-11-24T08:41:22.498Z,8.24
2022-11-24T08:43:50.502Z,8.58
2022-11-24T08:46:19.795Z,8.48
2022-11-24T08:48:50.152Z,8.54
2022-11-24T08:51:19.931Z,8.42
2022-11-24T08:53:49.122Z,8.67
2022-11-24T08:56:17.008Z,8.68
2022-11-24T08:58:44.849Z,8.66
2022-11-24T09:01:14.722Z,8.55
2022-11-24T09:03:49.717Z,8.73
2022-11-24T09:06:19.437Z,8.70
2022-11-24T09:08:47.298Z,9.03
2022-11-24T09:11:17.577Z,8.76
2022-11-24T09:13:46.937Z,8.47
2022-11-24T09:16:16.156Z,8.31
2022-11-24T09:18:44.495Z,8.33
2022-11-24T09:21:14.085Z,8.62
2022-11-24T09:23:43.036Z,8.60
2022-11-24T09:26:13.679Z,8.57
2022-11-24T09:28:43.384Z,8.77
2022-11-24T09:31:12.874Z,8.50
2022-11-24T09:33:41.543Z,8.58
2022-11-24T09:36:10.241Z,8.46
2022-11-24T09:38:38.217Z,8.56
2022-11-24T09:42:06.407Z,8.43
2022-11-24T09:45:00.146Z,8.41
2022-11-24T09:47:39.466Z,8.31
2022-11-24T09:50:14.594Z,8.26
2022-11-24T09:52:47.705Z,8.22
2022-11-24T09:55:26.614Z,8.30
2022-11-24T09:58:02.925Z,8.32
2022-11-24T10:00:32.953Z,8.39
2022-11-24T10:03:00.886Z,8.38
2022-11-24T10:05:35.011Z,8.47
2022-11-24T10:08:13.324Z,8.36
2022-11-24T10:10:52.076Z,8.26
2022-11-24T10:13:34.032Z,7.96
2022-11-24T10:16:12.861Z,7.76
2022-11-24T10:18:55.573Z,7.58
2022-11-24T10:21:36.262Z,7.38
2022-11-24T10:24:22.326Z,7.14
2022-11-24T10:26:56.588Z,6.94
2022-11-24T10:29:29.840Z,6.76
2022-11-24T10:31:59.338Z,6.67
2022-11-24T10:34:31.114Z,6.47
2022-11-24T10:37:07.050Z,6.32
2022-11-24T10:39:40.509Z,6.20
2022-11-24T10:42:16.551Z,6.07
2022-11-24T10:44:44.718Z,5.90
2022-11-24T10:47:22.782Z,5.79
2022-11-24T10:49:57.115Z,5.73
2022-11-24T10:52:26.347Z,5.65
2022-11-24T10:54:56.936Z,5.60
2022-11-24T10:57:33.409Z,5.54
2022-11-24T11:00:01.420Z,5.52
2022-11-24T11:03:13.355Z,5.52
2022-11-24T11:05:44.316Z,5.70
2022-11-24T11:08:19.973Z,5.64
2022-11-24T11:10:49.946Z,5.68
2022-11-24T11:13:29.233Z,5.69
2022-11-24T11:15:59.088Z,5.62
2022-11-24T11:18:33.520Z,5.75
2022-11-24T11:21:03.355Z,5.63
2022-11-24T11:23:33.722Z,5.64
2022-11-24T11:26:32.004Z,5.62
2022-11-24T11:34:54.691Z,5.67
2022-11-24T11:37:26.678Z,5.73
2022-11-24T11:39:57.307Z,5.77
2022-11-24T11:45:27.794Z,5.74
2022-11-24T11:48:03.994Z,5.71
2022-11-24T11:51:14.985Z,5.75
2022-11-24T11:53:45.022Z,5.80
2022-11-24T11:56:25.829Z,5.82
2022-11-24T11:59:19.607Z,5.83
2022-11-24T12:02:17.377Z,5.85
2022-11-24T12:04:52.509Z,5.97
2022-11-24T12:07:40.178Z,5.87
2022-11-24T12:10:17.615Z,5.89
2022-11-24T12:13:00.826Z,5.89
2022-11-24T12:15:35.835Z,5.92
2022-11-24T12:18:40.377Z,5.86
2022-11-24T12:21:12.803Z,5.75
2022-11-24T12:23:54.222Z,5.75
2022-11-24T12:26:32.457Z,5.71
2022-11-24T12:29:14.287Z,5.89
2022-11-24T12:31:52.936Z,5.98
2022-11-24T12:34:42.921Z,6.09
2022-11-24T12:37:31.865Z,6.15
2022-11-24T12:40:06.267Z,6.20
2022-11-24T12:42:44.788Z,6.12
2022-11-24T12:45:18.333Z,6.05
2022-11-24T12:48:00.577Z,6.22
2022-11-24T12:50:30.628Z,6.10
2022-11-24T12:53:03.916Z,6.12
2022-11-24T12:55:34.992Z,5.97
2022-11-24T12:58:11.289Z,6.08
2022-11-24T13:00:50.482Z,6.07
2022-11-24T13:03:28.637Z,6.11
2022-11-24T13:06:00.583Z,6.15
2022-11-24T13:08:30.699Z,6.30
2022-11-24T13:11:27.433Z,6.39
2022-11-24T13:14:00.348Z,6.31
2022-11-24T13:19:22.200Z,6.28
2022-11-24T13:22:01.454Z,6.20
2022-11-24T13:24:31.880Z,6.13
2022-11-24T13:27:37.056Z,6.19
2022-11-24T13:30:51.305Z,6.32
2022-11-24T13:33:38.189Z,6.13
2022-11-24T13:36:33.902Z,6.08
2022-11-24T13:39:03.789Z,6.16
2022-11-24T13:42:42.656Z,6.36
2022-11-24T13:45:01.804Z,6.35
2022-11-24T13:47:35.410Z,6.33
2022-11-24T13:50:09.853Z,6.32
2022-11-24T13:53:01.296Z,6.34
2022-11-24T13:55:39.750Z,6.24
2022-11-24T13:58:35.275Z,6.20
2022-11-24T14:01:08.191Z,6.15
2022-11-24T14:03:39.714Z,6.12
2022-11-24T14:06:18.300Z,6.10
2022-11-24T14:08:47.911Z,6.11
2022-11-24T14:11:18.334Z,6.21
2022-11-24T14:13:46.107Z,6.30
2022-11-24T14:16:17.520Z,6.51
2022-11-24T14:18:46.917Z,6.65
2022-11-24T14:21:28.957Z,6.53
2022-11-24T14:23:59.739Z,6.42
2022-11-24T14:26:34.292Z,6.49
2022-11-24T14:29:14.715Z,6.34
2022-11-24T14:31:43.716Z,6.37
2022-11-24T14:34:21.203Z,6.50
2022-11-24T14:36:51.329Z,6.84
2022-11-24T14:39:22.959Z,6.95
2022-11-24T14:41:53.332Z,7.16
2022-11-24T14:44:24.489Z,7.12
2022-11-24T14:47:01.953Z,7.10
2022-11-24T14:49:30.073Z,7.17
2022-11-24T14:52:03.493Z,7.16
2022-11-24T14:54:31.869Z,7.17
2022-11-24T14:57:04.293Z,7.13
2022-11-24T14:59:36.097Z,7.04
2022-11-24T15:02:04.938Z,7.09
2022-11-24T15:07:26.743Z,6.81
2022-11-24T15:09:57.726Z,6.75
2022-11-24T15:12:30.532Z,6.62
2022-11-24T15:15:01.323Z,6.48
2022-11-24T15:17:30.722Z,6.27
2022-11-24T15:20:02.768Z,6.21
2022-11-24T15:22:40.664Z,6.07
2022-11-24T15:25:27.182Z,5.94
2022-11-24T15:27:55.110Z,5.85
2022-11-24T15:30:22.874Z,5.73
2022-11-24T15:32:52.401Z,5.64
2022-11-24T15:35:21.598Z,5.51
2022-11-24T15:37:51.035Z,5.38
2022-11-24T15:40:19.247Z,5.40
2022-11-24T15:42:52.181Z,5.35
2022-11-24T15:45:21.288Z,5.30
2022-11-24T15:47:49.221Z,5.20
2022-11-24T15:50:17.575Z,5.16
2022-11-24T15:52:46.620Z,5.14
2022-11-24T15:55:19.224Z,5.11
2022-11-24T15:57:47.364Z,5.03
2022-11-24T16:00:41.461Z,5.02
2022-11-24T16:03:44.542Z,5.01
2022-11-24T16:05:58.448Z,4.99
2022-11-24T16:08:26.292Z,4.98
2022-11-24T16:10:55.951Z,4.98
2022-11-24T16:13:24.111Z,4.96
2022-11-24T16:15:52.008Z,4.94
2022-11-24T16:18:19.944Z,4.96
2022-11-24T16:20:47.766Z,4.92
2022-11-24T16:23:15.598Z,4.91
2022-11-24T16:25:43.359Z,4.90
2022-11-24T16:28:12.507Z,4.94
2022-11-24T16:30:40.295Z,4.89
2022-11-24T16:33:08.109Z,4.89
2022-11-24T16:35:37.052Z,4.87
2022-11-24T16:38:04.818Z,4.82
2022-11-24T16:40:32.864Z,4.82
2022-11-24T16:43:00.652Z,4.96
2022-11-24T16:45:29.788Z,4.91
2022-11-24T16:47:57.607Z,4.84
2022-11-24T16:50:25.424Z,4.83
2022-11-24T16:52:53.440Z,4.67
2022-11-24T16:55:21.207Z,4.56
2022-11-24T16:57:49.083Z,4.45
2022-11-24T17:00:18.850Z,4.36
2022-11-24T17:02:48.213Z,4.27
2022-11-24T17:05:16.483Z,4.25
2022-11-24T17:07:44.386Z,4.41
2022-11-24T17:10:12.477Z,4.49
2022-11-24T17:12:40.912Z,4.50
2022-11-24T17:15:31.695Z,4.52
2022-11-24T17:20:46.388Z,4.69
2022-11-24T17:23:14.237Z,4.70
2022-11-24T17:25:44.851Z,4.66
2022-11-24T17:28:12.639Z,4.72
2022-11-24T17:30:40.531Z,4.66
2022-11-24T17:33:09.723Z,4.53
2022-11-24T17:35:37.973Z,4.44
2022-11-24T17:38:08.038Z,4.27
2022-11-24T17:40:36.092Z,4.03
2022-11-24T17:43:04.205Z,3.96
2022-11-24T17:45:35.151Z,3.87
2022-11-24T17:48:02.918Z,3.75
2022-11-24T17:50:32.124Z,3.76
2022-11-24T17:52:59.939Z,3.75
2022-11-24T17:55:27.835Z,3.78
2022-11-24T17:57:56.996Z,3.88
2022-11-24T18:00:25.401Z,3.91
2022-11-24T18:02:53.183Z,4.00
2022-11-24T18:05:21.257Z,4.06
2022-11-24T18:07:50.727Z,3.98
2022-11-24T18:10:18.726Z,3.92
2022-11-24T18:12:46.654Z,3.87
2022-11-24T18:15:14.464Z,3.84
2022-11-24T18:17:42.230Z,3.85
2022-11-24T18:20:10.666Z,3.76
2022-11-24T18:23:06.500Z,3.76
2022-11-24T18:25:27.916Z,3.74
2022-11-24T18:27:55.737Z,3.78
2022-11-24T18:30:23.612Z,3.74
2022-11-24T18:32:51.513Z,3.76
2022-11-24T18:35:19.348Z,6.36
2022-11-24T18:37:47.169Z,7.11
2022-11-24T18:40:15.354Z,7.24
2022-11-24T18:42:44.583Z,6.65
2022-11-24T18:45:13.140Z,5.94
2022-11-24T18:47:40.963Z,5.34
2022-11-24T18:50:10.029Z,4.91
2022-11-24T18:52:37.991Z,4.62
2022-11-24T18:55:06.272Z,4.39
2022-11-24T18:57:34.066Z,4.09
2022-11-24T19:03:19.203Z,3.78
2022-11-24T19:05:47.255Z,3.71
2022-11-24T19:08:15.056Z,3.64
2022-11-24T19:10:45.202Z,3.54
2022-11-24T19:13:14.368Z,3.53
2022-11-24T19:15:43.764Z,3.48
2022-11-24T19:18:11.574Z,3.37
2022-11-24T19:20:39.468Z,3.34
2022-11-24T19:23:14.668Z,3.32
2022-11-24T19:25:42.592Z,3.32
2022-11-24T19:28:12.592Z,3.29
2022-11-24T19:30:45.267Z,3.25
2022-11-24T19:33:13.119Z,3.26
2022-11-24T19:35:41.042Z,3.17
2022-11-24T19:38:12.336Z,3.22
2022-11-24T19:40:42.836Z,3.21
2022-11-24T19:43:10.797Z,3.19
2022-11-24T19:45:43.831Z,3.20
2022-11-24T19:48:13.196Z,3.20
2022-11-24T19:50:41.033Z,3.06
2022-11-24T19:53:08.871Z,3.09
2022-11-24T19:55:36.735Z,3.06
2022-11-24T19:58:04.761Z,3.06
2022-11-24T20:00:35.200Z,2.97
2022-11-24T20:03:03.273Z,3.09
2022-11-24T20:05:32.611Z,3.08
2022-11-24T20:08:00.475Z,3.09
2022-11-24T20:10:28.335Z,3.05
2022-11-24T20:12:56.204Z,3.01
2022-11-24T20:15:27.244Z,3.02
2022-11-24T20:17:55.155Z,3.03
2022-11-24T20:20:23.029Z,2.99
2022-11-24T20:22:54.582Z,3.00
2022-11-24T20:25:22.637Z,2.95
2022-11-24T20:27:50.655Z,2.90
2022-11-24T20:30:18.626Z,2.78
2022-11-24T20:32:46.517Z,2.76
2022-11-24T20:35:18.156Z,2.76
2022-11-24T20:37:46.454Z,2.74
2022-11-24T20:40:16.136Z,2.68
2022-11-24T20:42:44.338Z,2.64
2022-11-24T20:45:12.556Z,2.63
2022-11-24T20:47:40.500Z,2.62
2022-11-24T20:50:08.921Z,2.58
2022-11-24T20:52:37.094Z,2.54
2022-11-24T20:55:06.656Z,2.52
2022-11-24T20:57:36.119Z,2.48
2022-11-24T21:03:22.550Z,2.40
2022-11-24T21:05:55.741Z,2.39
2022-11-24T21:08:23.605Z,2.34
2022-11-24T21:10:55.735Z,2.35
2022-11-24T21:13:25.031Z,2.34
2022-11-24T21:15:53.800Z,2.39
2022-11-24T21:18:22.995Z,2.32
2022-11-24T21:20:50.966Z,2.28
2022-11-24T21:23:20.564Z,2.22
2022-11-24T21:25:48.671Z,2.25
2022-11-24T21:28:16.536Z,2.27
2022-11-24T21:30:48.052Z,2.27
2022-11-24T21:33:17.021Z,2.20
2022-11-24T21:35:51.126Z,2.12
2022-11-24T21:38:19.790Z,2.10
2022-11-24T21:40:50.326Z,2.05
2022-11-24T21:43:18.403Z,2.06
2022-11-24T21:45:47.742Z,2.06
2022-11-24T21:48:16.148Z,2.02
2022-11-24T21:50:50.455Z,2.09
2022-11-24T21:53:18.847Z,2.10
2022-11-24T21:55:55.685Z,2.03
2022-11-24T21:58:23.936Z,2.08
2022-11-24T22:00:53.686Z,2.04
2022-11-24T22:03:22.662Z,2.02
2022-11-24T22:05:55.288Z,2.11
2022-11-24T22:08:24.215Z,2.13
2022-11-24T22:10:53.204Z,2.17
2022-11-24T22:13:21.909Z,2.15
2022-11-24T22:16:02.064Z,2.10
2022-11-24T22:18:34.341Z,2.03
2022-11-24T22:21:03.960Z,2.00
2022-11-24T22:23:32.191Z,2.15
2022-11-24T22:26:04.431Z,2.14
2022-11-24T22:28:34.016Z,2.14
2022-11-24T22:31:06.991Z,2.10
2022-11-24T22:33:35.711Z,2.01
2022-11-24T22:36:04.289Z,2.04
2022-11-24T22:38:33.434Z,2.01
2022-11-24T22:41:05.653Z,2.01
2022-11-24T22:43:34.377Z,2.17
2022-11-24T22:46:07.967Z,2.23
2022-11-24T22:48:36.274Z,2.13
2022-11-24T22:51:06.202Z,2.14
2022-11-24T22:53:34.181Z,2.13
2022-11-24T22:56:02.914Z,2.07
2022-11-24T22:58:31.031Z,2.13
2022-11-24T23:01:07.208Z,2.11
2022-11-24T23:03:35.445Z,2.22
2022-11-24T23:06:03.668Z,2.18
2022-11-24T23:08:33.854Z,2.24
2022-11-24T23:11:02.208Z,2.14
2022-11-24T23:13:30.213Z,2.02
2022-11-24T23:16:02.490Z,1.94
2022-11-24T23:18:32.202Z,1.83
2022-11-24T23:21:06.341Z,1.75
2022-11-24T23:23:34.263Z,1.78
2022-11-24T23:26:02.279Z,1.92
2022-11-24T23:28:30.320Z,1.89
2022-11-24T23:31:01.740Z,1.91
2022-11-24T23:33:31.025Z,1.92
2022-11-24T23:36:01.930Z,1.95
2022-11-24T23:38:32.520Z,1.99
2022-11-24T23:41:01.290Z,2.10
2022-11-24T23:43:30.307Z,2.03
2022-11-24T23:46:03.372Z,2.04
2022-11-24T23:48:33.039Z,2.08
2022-11-24T23:51:05.279Z,4.15
2022-11-24T23:53:33.495Z,4.82
2022-11-24T23:56:01.362Z,5.69
2022-11-24T23:58:29.526Z,6.12
